sensor_id;sensor_type;location;lat;lon;timestamp;pressure;altitude;pressure_sealevel;temperature;humidity
9764;BME280;4921;43.214;27.936;2022-08-07T00:01:44;100540.25;;;25.70;94.38
9764;BME280;4921;43.214;27.936;2022-08-07T00:04:11;100536.56;;;25.65;93.61
9764;BME280;4921;43.214;27.936;2022-08-07T00:06:38;100539.03;;;25.66;93.62
9764;BME280;4921;43.214;27.936;2022-08-07T00:09:05;100534.47;;;25.67;93.41
9764;BME280;4921;43.214;27.936;2022-08-07T00:11:32;100540.25;;;25.70;93.84
9764;BME280;4921;43.214;27.936;2022-08-07T00:14:01;100531.34;;;25.70;94.27
9764;BME280;4921;43.214;27.936;2022-08-07T00:16:27;100536.50;;;25.71;94.39
9764;BME280;4921;43.214;27.936;2022-08-07T00:18:54;100530.28;;;25.71;94.63
9764;BME280;4921;43.214;27.936;2022-08-07T00:21:21;100529.84;;;25.74;94.58
9764;BME280;4921;43.214;27.936;2022-08-07T00:23:48;100527.16;;;25.74;95.06
9764;BME280;4921;43.214;27.936;2022-08-07T00:26:16;100520.94;;;25.73;95.41
9764;BME280;4921;43.214;27.936;2022-08-07T00:28:42;100509.13;;;25.75;96.77
9764;BME280;4921;43.214;27.936;2022-08-07T00:31:11;100515.31;;;25.75;98.22
9764;BME280;4921;43.214;27.936;2022-08-07T00:33:39;100507.03;;;25.77;100.00
9764;BME280;4921;43.214;27.936;2022-08-07T00:36:07;100513.00;;;25.79;100.00
9764;BME280;4921;43.214;27.936;2022-08-07T00:38:34;100513.84;;;25.79;100.00
9764;BME280;4921;43.214;27.936;2022-08-07T00:41:02;100505.75;;;25.79;100.00
9764;BME280;4921;43.214;27.936;2022-08-07T00:43:30;100514.44;;;25.81;100.00
9764;BME280;4921;43.214;27.936;2022-08-07T00:45:57;100512.53;;;25.82;100.00
9764;BME280;4921;43.214;27.936;2022-08-07T00:48:26;100516.06;;;25.82;100.00
9764;BME280;4921;43.214;27.936;2022-08-07T00:50:53;100511.50;;;25.83;100.00
9764;BME280;4921;43.214;27.936;2022-08-07T00:53:20;100513.38;;;25.82;100.00
9764;BME280;4921;43.214;27.936;2022-08-07T00:55:48;100509.66;;;25.83;100.00
9764;BME280;4921;43.214;27.936;2022-08-07T00:58:17;100506.72;;;25.85;100.00
9764;BME280;4921;43.214;27.936;2022-08-07T01:00:44;100508.81;;;25.83;100.00
9764;BME280;4921;43.214;27.936;2022-08-07T01:03:11;100508.81;;;25.83;100.00
9764;BME280;4921;43.214;27.936;2022-08-07T01:05:41;100508.22;;;25.81;100.00
9764;BME280;4921;43.214;27.936;2022-08-07T01:08:10;100511.94;;;25.80;100.00
9764;BME280;4921;43.214;27.936;2022-08-07T01:10:37;100498.94;;;25.77;100.00
9764;BME280;4921;43.214;27.936;2022-08-07T01:13:04;100506.56;;;25.80;100.00
9764;BME280;4921;43.214;27.936;2022-08-07T01:15:33;100504.47;;;25.82;100.00
9764;BME280;4921;43.214;27.936;2022-08-07T01:18:00;100508.22;;;25.81;100.00
9764;BME280;4921;43.214;27.936;2022-08-07T01:20:32;100506.56;;;25.80;100.00
9764;BME280;4921;43.214;27.936;2022-08-07T01:23:01;100488.38;;;25.75;100.00
9764;BME280;4921;43.214;27.936;2022-08-07T01:25:28;100498.72;;;25.78;100.00
9764;BME280;4921;43.214;27.936;2022-08-07T01:27:55;100497.06;;;25.77;100.00
9764;BME280;4921;43.214;27.936;2022-08-07T01:30:24;100502.91;;;25.74;100.00
9764;BME280;4921;43.214;27.936;2022-08-07T01:32:51;100501.03;;;25.75;100.00
9764;BME280;4921;43.214;27.936;2022-08-07T01:35:20;100506.19;;;25.76;100.00
9764;BME280;4921;43.214;27.936;2022-08-07T01:37:48;100504.53;;;25.75;100.00
9764;BME280;4921;43.214;27.936;2022-08-07T01:40:18;100505.38;;;25.76;100.00
9764;BME280;4921;43.214;27.936;2022-08-07T01:42:46;100510.75;;;25.76;100.00
9764;BME280;4921;43.214;27.936;2022-08-07T01:45:13;100503.25;;;25.78;100.00
9764;BME280;4921;43.214;27.936;2022-08-07T01:47:41;100503.50;;;25.76;100.00
9764;BME280;4921;43.214;27.936;2022-08-07T01:50:08;100498.09;;;25.76;100.00
9764;BME280;4921;43.214;27.936;2022-08-07T01:52:38;100505.59;;;25.74;100.00
9764;BME280;4921;43.214;27.936;2022-08-07T01:55:08;100498.53;;;25.73;100.00
9764;BME280;4921;43.214;27.936;2022-08-07T01:57:39;100502.91;;;25.74;100.00
9764;BME280;4921;43.214;27.936;2022-08-07T02:00:09;100500.44;;;25.73;100.00
9764;BME280;4921;43.214;27.936;2022-08-07T02:02:41;100495.06;;;25.73;100.00
9764;BME280;4921;43.214;27.936;2022-08-07T02:05:12;100498.78;;;25.71;100.00
9764;BME280;4921;43.214;27.936;2022-08-07T02:07:43;100493.38;;;25.71;100.00
9764;BME280;4921;43.214;27.936;2022-08-07T02:10:12;100497.94;;;25.71;100.00
9764;BME280;4921;43.214;27.936;2022-08-07T02:12:42;100495.47;;;25.69;100.00
9764;BME280;4921;43.214;27.936;2022-08-07T02:15:11;100495.47;;;25.69;100.00
9764;BME280;4921;43.214;27.936;2022-08-07T02:17:41;100493.22;;;25.66;100.00
9764;BME280;4921;43.214;27.936;2022-08-07T02:20:10;100493.09;;;25.61;100.00
9764;BME280;4921;43.214;27.936;2022-08-07T02:22:39;100496.22;;;25.58;100.00
9764;BME280;4921;43.214;27.936;2022-08-07T02:25:10;100501.22;;;25.55;100.00
9764;BME280;4921;43.214;27.936;2022-08-07T02:27:41;100498.97;;;25.52;100.00
9764;BME280;4921;43.214;27.936;2022-08-07T02:30:11;100497.41;;;25.44;100.00
9764;BME280;4921;43.214;27.936;2022-08-07T02:32:38;100502.34;;;25.41;100.00
9764;BME280;4921;43.214;27.936;2022-08-07T02:35:06;100506.13;;;25.40;100.00
9764;BME280;4921;43.214;27.936;2022-08-07T02:37:38;100500.78;;;25.33;100.00
9764;BME280;4921;43.214;27.936;2022-08-07T02:40:07;100496.47;;;25.26;100.00
9764;BME280;4921;43.214;27.936;2022-08-07T02:42:35;100502.94;;;25.25;100.00
9764;BME280;4921;43.214;27.936;2022-08-07T02:45:06;100501.25;;;25.24;100.00
9764;BME280;4921;43.214;27.936;2022-08-07T02:47:34;100503.13;;;25.23;100.00
9764;BME280;4921;43.214;27.936;2022-08-07T02:50:01;100495.13;;;25.17;100.00
9764;BME280;4921;43.214;27.936;2022-08-07T02:52:31;100492.66;;;25.15;100.00
9764;BME280;4921;43.214;27.936;2022-08-07T02:55:02;100495.94;;;25.17;100.00
9764;BME280;4921;43.214;27.936;2022-08-07T02:57:30;100495.34;;;25.15;100.00
9764;BME280;4921;43.214;27.936;2022-08-07T02:59:59;100493.25;;;25.17;100.00
9764;BME280;4921;43.214;27.936;2022-08-07T03:02:28;100494.97;;;25.12;100.00
9764;BME280;4921;43.214;27.936;2022-08-07T03:04:56;100494.97;;;25.12;100.00
9764;BME280;4921;43.214;27.936;2022-08-07T03:07:24;100495.78;;;25.12;100.00
9764;BME280;4921;43.214;27.936;2022-08-07T03:09:52;100494.56;;;25.08;100.00
9764;BME280;4921;43.214;27.936;2022-08-07T03:12:20;100502.03;;;25.06;100.00
9764;BME280;4921;43.214;27.936;2022-08-07T03:14:48;100499.34;;;25.06;100.00
9764;BME280;4921;43.214;27.936;2022-08-07T03:17:16;100506.81;;;25.04;100.00
9764;BME280;4921;43.214;27.936;2022-08-07T03:19:44;100506.66;;;24.99;100.00
9764;BME280;4921;43.214;27.936;2022-08-07T03:22:12;100509.34;;;24.99;100.00
9764;BME280;4921;43.214;27.936;2022-08-07T03:24:39;100505.81;;;24.98;100.00
9764;BME280;4921;43.214;27.936;2022-08-07T03:27:07;100509.53;;;24.97;100.00
9764;BME280;4921;43.214;27.936;2022-08-07T03:29:37;100513.47;;;25.02;100.00
9764;BME280;4921;43.214;27.936;2022-08-07T03:32:07;100511.81;;;25.01;100.00
9764;BME280;4921;43.214;27.936;2022-08-07T03:34:37;100511.59;;;25.02;100.00
9764;BME280;4921;43.214;27.936;2022-08-07T03:37:07;100514.28;;;25.02;100.00
9764;BME280;4921;43.214;27.936;2022-08-07T03:39:36;100511.16;;;25.05;100.00
9764;BME280;4921;43.214;27.936;2022-08-07T03:42:05;100518.78;;;25.08;100.00
9764;BME280;4921;43.214;27.936;2022-08-07T03:44:33;100526.06;;;25.08;100.00
9764;BME280;4921;43.214;27.936;2022-08-07T03:47:01;100523.75;;;25.11;100.00
9764;BME280;4921;43.214;27.936;2022-08-07T03:49:29;100518.78;;;25.08;100.00
9764;BME280;4921;43.214;27.936;2022-08-07T03:51:56;100523.50;;;25.13;100.00
9764;BME280;4921;43.214;27.936;2022-08-07T03:54:25;100521.41;;;25.15;100.00
9764;BME280;4921;43.214;27.936;2022-08-07T03:56:54;100518.59;;;25.10;100.00
9764;BME280;4921;43.214;27.936;2022-08-07T03:59:22;100524.13;;;25.15;100.00
9764;BME280;4921;43.214;27.936;2022-08-07T04:01:52;100527.22;;;25.18;100.00
9764;BME280;4921;43.214;27.936;2022-08-07T04:04:20;100521.19;;;25.23;100.00
9764;BME280;4921;43.214;27.936;2022-08-07T04:06:47;100527.16;;;25.25;100.00
9764;BME280;4921;43.214;27.936;2022-08-07T04:09:15;100524.47;;;25.25;100.00
9764;BME280;4921;43.214;27.936;2022-08-07T04:11:44;100526.94;;;25.26;100.00
9764;BME280;4921;43.214;27.936;2022-08-07T04:14:11;100518.19;;;25.31;100.00
9764;BME280;4921;43.214;27.936;2022-08-07T04:16:39;100526.66;;;25.34;100.00
9764;BME280;4921;43.214;27.936;2022-08-07T04:19:06;100525.00;;;25.33;100.00
9764;BME280;4921;43.214;27.936;2022-08-07T04:21:34;100519.88;;;25.32;100.00
9764;BME280;4921;43.214;27.936;2022-08-07T04:24:02;100532.03;;;25.34;100.00
9764;BME280;4921;43.214;27.936;2022-08-07T04:26:29;100524.34;;;25.38;100.00
9764;BME280;4921;43.214;27.936;2022-08-07T04:28:58;100529.28;;;25.41;100.00
9764;BME280;4921;43.214;27.936;2022-08-07T04:31:25;100524.09;;;25.46;100.00
9764;BME280;4921;43.214;27.936;2022-08-07T04:33:52;100527.41;;;25.48;100.00
9764;BME280;4921;43.214;27.936;2022-08-07T04:36:19;100525.06;;;25.51;100.00
9764;BME280;4921;43.214;27.936;2022-08-07T04:38:46;100528.38;;;25.53;100.00
9764;BME280;4921;43.214;27.936;2022-08-07T04:41:13;100525.84;;;25.58;100.00
9764;BME280;4921;43.214;27.936;2022-08-07T04:43:41;100522.31;;;25.58;100.00
9764;BME280;4921;43.214;27.936;2022-08-07T04:46:15;100518.97;;;25.62;100.00
9764;BME280;4921;43.214;27.936;2022-08-07T04:48:50;100520.75;;;25.68;100.00
9764;BME280;4921;43.214;27.936;2022-08-07T04:51:25;100521.00;;;25.67;100.00
9764;BME280;4921;43.214;27.936;2022-08-07T04:54:00;100528.78;;;25.75;100.00
9764;BME280;4921;43.214;27.936;2022-08-07T04:56:33;100530.81;;;25.80;100.00
9764;BME280;4921;43.214;27.936;2022-08-07T04:59:09;100536.81;;;25.82;100.00
9764;BME280;4921;43.214;27.936;2022-08-07T05:01:43;100530.97;;;25.85;100.00
9764;BME280;4921;43.214;27.936;2022-08-07T05:04:15;100536.72;;;25.88;100.00
9764;BME280;4921;43.214;27.936;2022-08-07T05:06:51;100536.28;;;25.91;100.00
9764;BME280;4921;43.214;27.936;2022-08-07T05:09:25;100534.13;;;26.00;100.00
9764;BME280;4921;43.214;27.936;2022-08-07T05:11:53;100534.06;;;26.06;100.00
9764;BME280;4921;43.214;27.936;2022-08-07T05:14:25;100539.84;;;26.10;100.00
9764;BME280;4921;43.214;27.936;2022-08-07T05:16:58;100539.75;;;26.16;100.00
9764;BME280;4921;43.214;27.936;2022-08-07T05:19:30;100531.41;;;26.24;100.00
9764;BME280;4921;43.214;27.936;2022-08-07T05:22:00;100534.81;;;26.31;100.00
9764;BME280;4921;43.214;27.936;2022-08-07T05:24:29;100540.00;;;26.33;99.84
9764;BME280;4921;43.214;27.936;2022-08-07T05:26:57;100532.88;;;26.38;98.97
9764;BME280;4921;43.214;27.936;2022-08-07T05:29:27;100541.91;;;26.44;97.60
9764;BME280;4921;43.214;27.936;2022-08-07T05:31:56;100544.16;;;26.47;97.30
9764;BME280;4921;43.214;27.936;2022-08-07T05:34:25;100541.16;;;26.55;97.05
9764;BME280;4921;43.214;27.936;2022-08-07T05:36:54;100542.25;;;26.66;97.55
9764;BME280;4921;43.214;27.936;2022-08-07T05:39:22;100550.13;;;26.67;98.08
9764;BME280;4921;43.214;27.936;2022-08-07T05:41:50;100553.13;;;26.77;98.87
9764;BME280;4921;43.214;27.936;2022-08-07T05:44:19;100551.75;;;26.86;100.00
9764;BME280;4921;43.214;27.936;2022-08-07T05:46:48;100558.59;;;26.89;100.00
9764;BME280;4921;43.214;27.936;2022-08-07T05:49:17;100548.50;;;26.96;100.00
9764;BME280;4921;43.214;27.936;2022-08-07T05:51:45;100559.78;;;27.04;100.00
9764;BME280;4921;43.214;27.936;2022-08-07T05:54:13;100557.69;;;27.06;100.00
9764;BME280;4921;43.214;27.936;2022-08-07T05:56:42;100553.47;;;27.10;100.00
9764;BME280;4921;43.214;27.936;2022-08-07T05:59:14;100557.94;;;27.16;100.00
9764;BME280;4921;43.214;27.936;2022-08-07T06:01:42;100561.47;;;27.29;99.72
9764;BME280;4921;43.214;27.936;2022-08-07T06:04:13;100566.44;;;27.32;98.69
9764;BME280;4921;43.214;27.936;2022-08-07T06:06:46;100553.03;;;27.25;98.62
9764;BME280;4921;43.214;27.936;2022-08-07T06:09:15;100551.56;;;27.41;97.48
9764;BME280;4921;43.214;27.936;2022-08-07T06:11:43;100569.88;;;27.50;96.18
9764;BME280;4921;43.214;27.936;2022-08-07T06:14:11;100569.78;;;27.57;96.99
9764;BME280;4921;43.214;27.936;2022-08-07T06:16:38;100567.22;;;27.62;96.91
9764;BME280;4921;43.214;27.936;2022-08-07T06:19:07;100566.38;;;27.73;97.00
9764;BME280;4921;43.214;27.936;2022-08-07T06:21:35;100570.97;;;27.84;95.09
9764;BME280;4921;43.214;27.936;2022-08-07T06:24:04;100563.91;;;27.83;94.99
9764;BME280;4921;43.214;27.936;2022-08-07T06:26:31;100568.66;;;27.99;96.14
9764;BME280;4921;43.214;27.936;2022-08-07T06:28:59;100573.69;;;28.07;93.21
9764;BME280;4921;43.214;27.936;2022-08-07T06:31:28;100566.03;;;28.16;90.24
9764;BME280;4921;43.214;27.936;2022-08-07T06:33:55;100573.66;;;28.19;89.26
9764;BME280;4921;43.214;27.936;2022-08-07T06:36:22;100571.66;;;28.26;90.72
9764;BME280;4921;43.214;27.936;2022-08-07T06:38:51;100570.94;;;28.30;89.57
9764;BME280;4921;43.214;27.936;2022-08-07T06:41:24;100569.75;;;28.38;89.92
9764;BME280;4921;43.214;27.936;2022-08-07T06:43:52;100566.78;;;28.51;90.30
9764;BME280;4921;43.214;27.936;2022-08-07T06:46:20;100574.91;;;28.51;90.89
9764;BME280;4921;43.214;27.936;2022-08-07T06:48:47;100575.81;;;28.56;91.49
9764;BME280;4921;43.214;27.936;2022-08-07T06:51:17;100575.13;;;28.61;92.80
9764;BME280;4921;43.214;27.936;2022-08-07T06:53:45;100569.31;;;28.69;94.34
9764;BME280;4921;43.214;27.936;2022-08-07T06:56:14;100573.59;;;28.82;93.37
9764;BME280;4921;43.214;27.936;2022-08-07T06:59:05;100576.69;;;28.85;91.59
9764;BME280;4921;43.214;27.936;2022-08-07T07:01:34;100571.59;;;28.89;91.42
9764;BME280;4921;43.214;27.936;2022-08-07T07:04:02;100574.16;;;28.95;90.40
9764;BME280;4921;43.214;27.936;2022-08-07T07:06:30;100574.81;;;29.02;89.86
9764;BME280;4921;43.214;27.936;2022-08-07T07:09:15;100584.94;;;29.07;91.08
9764;BME280;4921;43.214;27.936;2022-08-07T07:11:53;100578.78;;;29.11;92.14
9764;BME280;4921;43.214;27.936;2022-08-07T07:14:27;100578.41;;;29.19;92.97
9764;BME280;4921;43.214;27.936;2022-08-07T07:16:58;100569.97;;;29.32;92.44
9764;BME280;4921;43.214;27.936;2022-08-07T07:19:30;100575.38;;;29.32;93.97
9764;BME280;4921;43.214;27.936;2022-08-07T07:22:00;100570.53;;;29.34;94.73
9764;BME280;4921;43.214;27.936;2022-08-07T07:24:27;100571.94;;;29.37;93.51
9764;BME280;4921;43.214;27.936;2022-08-07T07:26:55;100576.94;;;29.45;93.91
9764;BME280;4921;43.214;27.936;2022-08-07T07:29:29;100582.34;;;29.62;93.64
9764;BME280;4921;43.214;27.936;2022-08-07T07:32:01;100584.06;;;29.68;93.01
9764;BME280;4921;43.214;27.936;2022-08-07T07:34:30;100578.50;;;29.74;92.66
9764;BME280;4921;43.214;27.936;2022-08-07T07:37:02;100581.31;;;29.79;90.29
9764;BME280;4921;43.214;27.936;2022-08-07T07:39:30;100567.66;;;29.91;89.02
9764;BME280;4921;43.214;27.936;2022-08-07T07:41:59;100573.38;;;29.94;86.03
9764;BME280;4921;43.214;27.936;2022-08-07T07:44:29;100587.03;;;29.99;86.56
9764;BME280;4921;43.214;27.936;2022-08-07T07:46:59;100583.22;;;30.00;81.66
9764;BME280;4921;43.214;27.936;2022-08-07T07:49:27;100595.78;;;30.06;81.28
9764;BME280;4921;43.214;27.936;2022-08-07T07:51:59;100588.88;;;30.15;81.56
9764;BME280;4921;43.214;27.936;2022-08-07T07:54:27;100591.34;;;30.17;80.79
9764;BME280;4921;43.214;27.936;2022-08-07T07:56:56;100594.53;;;30.31;80.89
9764;BME280;4921;43.214;27.936;2022-08-07T07:59:23;100589.75;;;30.38;79.69
9764;BME280;4921;43.214;27.936;2022-08-07T08:01:54;100591.69;;;30.42;76.69
9764;BME280;4921;43.214;27.936;2022-08-07T08:04:23;100594.78;;;30.51;75.53
9764;BME280;4921;43.214;27.936;2022-08-07T08:06:52;100591.44;;;30.44;75.76
9764;BME280;4921;43.214;27.936;2022-08-07T08:09:23;100597.50;;;30.51;75.25
9764;BME280;4921;43.214;27.936;2022-08-07T08:11:51;100597.06;;;30.59;74.83
9764;BME280;4921;43.214;27.936;2022-08-07T08:14:19;100587.66;;;30.45;70.19
9764;BME280;4921;43.214;27.936;2022-08-07T08:16:46;100606.91;;;30.43;70.09
9764;BME280;4921;43.214;27.936;2022-08-07T08:19:18;100596.19;;;30.32;69.33
9764;BME280;4921;43.214;27.936;2022-08-07T08:21:50;100598.56;;;30.50;70.44
9764;BME280;4921;43.214;27.936;2022-08-07T08:24:36;100609.19;;;30.51;67.46
9764;BME280;4921;43.214;27.936;2022-08-07T08:27:21;100599.28;;;30.40;67.51
9764;BME280;4921;43.214;27.936;2022-08-07T08:29:53;100604.84;;;30.50;67.90
9764;BME280;4921;43.214;27.936;2022-08-07T08:32:24;100591.97;;;30.62;67.53
9764;BME280;4921;43.214;27.936;2022-08-07T08:34:53;100602.19;;;30.55;66.74
9764;BME280;4921;43.214;27.936;2022-08-07T08:37:24;100612.28;;;30.60;67.99
9764;BME280;4921;43.214;27.936;2022-08-07T08:39:53;100599.94;;;30.47;65.49
9764;BME280;4921;43.214;27.936;2022-08-07T08:42:26;100603.66;;;30.25;66.71
9764;BME280;4921;43.214;27.936;2022-08-07T08:44:59;100594.97;;;30.44;67.81
9764;BME280;4921;43.214;27.936;2022-08-07T08:47:36;100609.38;;;30.45;67.64
9764;BME280;4921;43.214;27.936;2022-08-07T08:50:13;100597.44;;;30.46;67.87
9764;BME280;4921;43.214;27.936;2022-08-07T08:52:48;100595.38;;;30.53;65.96
9764;BME280;4921;43.214;27.936;2022-08-07T08:55:20;100598.19;;;30.63;66.18
9764;BME280;4921;43.214;27.936;2022-08-07T08:57:54;100601.06;;;30.78;65.80
9764;BME280;4921;43.214;27.936;2022-08-07T09:00:25;100594.88;;;30.82;66.81
9764;BME280;4921;43.214;27.936;2022-08-07T09:02:59;100598.00;;;30.91;67.10
9764;BME280;4921;43.214;27.936;2022-08-07T09:05:33;100603.44;;;30.91;67.62
9764;BME280;4921;43.214;27.936;2022-08-07T09:08:24;100613.72;;;30.89;69.98
9764;BME280;4921;43.214;27.936;2022-08-07T09:11:01;100601.03;;;30.95;67.35
9764;BME280;4921;43.214;27.936;2022-08-07T09:13:38;100602.66;;;30.96;68.29
9764;BME280;4921;43.214;27.936;2022-08-07T09:16:12;100594.25;;;30.97;66.92
9764;BME280;4921;43.214;27.936;2022-08-07T09:18:55;100600.31;;;31.04;64.65
9764;BME280;4921;43.214;27.936;2022-08-07T09:21:33;100599.28;;;31.10;64.61
9764;BME280;4921;43.214;27.936;2022-08-07T09:24:05;100598.63;;;30.98;63.17
9764;BME280;4921;43.214;27.936;2022-08-07T09:26:43;100589.13;;;31.01;64.81
9764;BME280;4921;43.214;27.936;2022-08-07T09:29:19;100592.16;;;31.04;66.58
9764;BME280;4921;43.214;27.936;2022-08-07T09:31:55;100592.88;;;31.21;66.46
9764;BME280;4921;43.214;27.936;2022-08-07T09:34:30;100601.91;;;31.27;65.53
9764;BME280;4921;43.214;27.936;2022-08-07T09:37:06;100609.13;;;31.43;65.15
9764;BME280;4921;43.214;27.936;2022-08-07T09:39:44;100606.81;;;31.56;62.38
9764;BME280;4921;43.214;27.936;2022-08-07T09:42:24;100599.59;;;31.72;62.44
9764;BME280;4921;43.214;27.936;2022-08-07T09:45:04;100598.94;;;31.60;60.04
9764;BME280;4921;43.214;27.936;2022-08-07T09:47:43;100603.16;;;31.78;61.26
9764;BME280;4921;43.214;27.936;2022-08-07T09:50:17;100603.59;;;32.01;61.78
9764;BME280;4921;43.214;27.936;2022-08-07T09:52:55;100597.72;;;32.19;59.71
9764;BME280;4921;43.214;27.936;2022-08-07T09:55:30;100609.38;;;32.10;56.33
9764;BME280;4921;43.214;27.936;2022-08-07T09:58:17;100602.88;;;31.79;55.84
9764;BME280;4921;43.214;27.936;2022-08-07T10:00:58;100601.81;;;31.80;55.64
9764;BME280;4921;43.214;27.936;2022-08-07T10:03:58;100594.81;;;31.89;55.42
9764;BME280;4921;43.214;27.936;2022-08-07T10:06:51;100599.66;;;31.82;52.64
9764;BME280;4921;43.214;27.936;2022-08-07T10:09:41;100605.53;;;31.69;53.89
9764;BME280;4921;43.214;27.936;2022-08-07T10:12:17;100602.22;;;31.62;54.21
9764;BME280;4921;43.214;27.936;2022-08-07T10:15:10;100604.94;;;31.99;53.32
9764;BME280;4921;43.214;27.936;2022-08-07T10:17:57;100600.75;;;31.86;49.26
9764;BME280;4921;43.214;27.936;2022-08-07T10:20:32;100596.94;;;31.82;48.04
9764;BME280;4921;43.214;27.936;2022-08-07T10:23:16;100595.47;;;31.70;47.03
9764;BME280;4921;43.214;27.936;2022-08-07T10:25:58;100605.91;;;31.83;46.12
9764;BME280;4921;43.214;27.936;2022-08-07T10:28:39;100611.13;;;31.89;46.41
9764;BME280;4921;43.214;27.936;2022-08-07T10:31:20;100597.66;;;32.04;47.16
9764;BME280;4921;43.214;27.936;2022-08-07T10:34:02;100595.91;;;31.93;45.05
9764;BME280;4921;43.214;27.936;2022-08-07T10:36:39;100585.41;;;32.07;44.32
9764;BME280;4921;43.214;27.936;2022-08-07T10:39:28;100578.13;;;32.22;44.58
9764;BME280;4921;43.214;27.936;2022-08-07T10:42:07;100589.63;;;32.34;43.11
9764;BME280;4921;43.214;27.936;2022-08-07T10:44:42;100608.69;;;32.34;44.13
9764;BME280;4921;43.214;27.936;2022-08-07T10:47:18;100587.41;;;32.26;42.25
9764;BME280;4921;43.214;27.936;2022-08-07T10:49:55;100597.25;;;32.38;42.16
9764;BME280;4921;43.214;27.936;2022-08-07T10:52:31;100590.75;;;32.44;42.61
9764;BME280;4921;43.214;27.936;2022-08-07T10:55:08;100587.47;;;32.37;43.79
9764;BME280;4921;43.214;27.936;2022-08-07T10:57:58;100587.94;;;32.28;43.03
9764;BME280;4921;43.214;27.936;2022-08-07T11:00:33;100574.88;;;32.25;43.21
9764;BME280;4921;43.214;27.936;2022-08-07T11:03:05;100580.59;;;32.29;43.29
9764;BME280;4921;43.214;27.936;2022-08-07T11:05:41;100590.94;;;32.27;43.47
9764;BME280;4921;43.214;27.936;2022-08-07T11:08:15;100578.22;;;32.43;43.28
9764;BME280;4921;43.214;27.936;2022-08-07T11:10:46;100569.75;;;32.34;43.00
9764;BME280;4921;43.214;27.936;2022-08-07T11:13:23;100582.06;;;32.47;43.13
9764;BME280;4921;43.214;27.936;2022-08-07T11:15:53;100578.59;;;32.56;42.58
9764;BME280;4921;43.214;27.936;2022-08-07T11:18:27;100586.13;;;32.39;42.09
9764;BME280;4921;43.214;27.936;2022-08-07T11:21:01;100580.09;;;32.32;42.80
9764;BME280;4921;43.214;27.936;2022-08-07T11:23:45;100582.31;;;32.45;41.53
9764;BME280;4921;43.214;27.936;2022-08-07T11:26:16;100577.41;;;32.42;40.61
9764;BME280;4921;43.214;27.936;2022-08-07T11:28:51;100574.16;;;32.45;41.66
9764;BME280;4921;43.214;27.936;2022-08-07T11:31:28;100576.28;;;32.38;42.26
9764;BME280;4921;43.214;27.936;2022-08-07T11:34:03;100567.88;;;32.45;42.06
9764;BME280;4921;43.214;27.936;2022-08-07T11:36:38;100564.34;;;32.44;43.87
9764;BME280;4921;43.214;27.936;2022-08-07T11:39:31;100576.66;;;32.57;41.88
9764;BME280;4921;43.214;27.936;2022-08-07T11:42:12;100578.84;;;32.50;40.89
9764;BME280;4921;43.214;27.936;2022-08-07T11:44:48;100563.88;;;32.57;42.59
9764;BME280;4921;43.214;27.936;2022-08-07T11:47:26;100568.56;;;32.77;41.77
9764;BME280;4921;43.214;27.936;2022-08-07T11:50:02;100571.59;;;32.90;39.82
9764;BME280;4921;43.214;27.936;2022-08-07T11:52:44;100558.50;;;32.87;37.62
9764;BME280;4921;43.214;27.936;2022-08-07T11:55:25;100555.56;;;33.09;38.28
9764;BME280;4921;43.214;27.936;2022-08-07T11:58:03;100566.19;;;33.05;37.69
9764;BME280;4921;43.214;27.936;2022-08-07T12:00:39;100568.66;;;33.22;39.27
9764;BME280;4921;43.214;27.936;2022-08-07T12:06:31;100561.56;;;33.01;36.18
9764;BME280;4921;43.214;27.936;2022-08-07T12:09:05;100571.00;;;32.78;37.60
9764;BME280;4921;43.214;27.936;2022-08-07T12:11:37;100567.47;;;32.73;37.49
9764;BME280;4921;43.214;27.936;2022-08-07T12:14:09;100560.59;;;32.55;37.09
9764;BME280;4921;43.214;27.936;2022-08-07T12:16:44;100562.16;;;32.46;36.92
9764;BME280;4921;43.214;27.936;2022-08-07T12:19:16;100564.69;;;32.58;36.98
9764;BME280;4921;43.214;27.936;2022-08-07T12:21:51;100563.88;;;32.62;37.79
9764;BME280;4921;43.214;27.936;2022-08-07T12:24:26;100544.81;;;32.62;37.41
9764;BME280;4921;43.214;27.936;2022-08-07T12:27:01;100563.38;;;32.85;37.19
9764;BME280;4921;43.214;27.936;2022-08-07T12:29:34;100550.59;;;32.76;36.62
9764;BME280;4921;43.214;27.936;2022-08-07T12:32:09;100558.72;;;32.71;37.03
9764;BME280;4921;43.214;27.936;2022-08-07T12:34:39;100557.03;;;32.55;37.52
9764;BME280;4921;43.214;27.936;2022-08-07T12:37:09;100552.19;;;32.72;37.79
9764;BME280;4921;43.214;27.936;2022-08-07T12:39:39;100547.53;;;32.52;36.36
9764;BME280;4921;43.214;27.936;2022-08-07T12:42:09;100549.47;;;32.72;36.38
9764;BME280;4921;43.214;27.936;2022-08-07T12:44:39;100554.91;;;32.72;36.14
9764;BME280;4921;43.214;27.936;2022-08-07T12:47:13;100555.47;;;32.79;36.28
9764;BME280;4921;43.214;27.936;2022-08-07T12:49:50;100543.72;;;32.63;35.09
9764;BME280;4921;43.214;27.936;2022-08-07T12:52:26;100550.84;;;32.74;35.40
9764;BME280;4921;43.214;27.936;2022-08-07T12:54:59;100549.19;;;32.68;34.90
9764;BME280;4921;43.214;27.936;2022-08-07T12:57:30;100539.38;;;32.72;34.49
9764;BME280;4921;43.214;27.936;2022-08-07T12:59:59;100550.53;;;32.66;34.39
9764;BME280;4921;43.214;27.936;2022-08-07T13:02:43;100548.06;;;32.59;34.44
9764;BME280;4921;43.214;27.936;2022-08-07T13:05:21;100543.75;;;32.68;34.32
9764;BME280;4921;43.214;27.936;2022-08-07T13:08:09;100544.00;;;32.62;34.32
9764;BME280;4921;43.214;27.936;2022-08-07T13:10:46;100541.19;;;32.47;34.84
9764;BME280;4921;43.214;27.936;2022-08-07T13:13:31;100550.94;;;32.27;35.89
9764;BME280;4921;43.214;27.936;2022-08-07T13:16:06;100553.16;;;32.41;35.84
9764;BME280;4921;43.214;27.936;2022-08-07T13:18:44;100539.78;;;32.34;35.40
9764;BME280;4921;43.214;27.936;2022-08-07T13:21:17;100547.56;;;32.05;36.30
9764;BME280;4921;43.214;27.936;2022-08-07T13:23:51;100544.31;;;32.13;36.04